Time;durP1;ratioP1;P1;durP2;ratioP2;P2;SDS_P1;SDS_P2;PMS_P1;PMS_P2;Temp;Humidity;BMP_temperature;BMP_pressure;BME280_temperature;BME280_humidity;BME280_pressure;Samples;Min_cycle;Max_cycle;Signal;HPM_P1;HPM_P2
2022/06/16 00:01:44;;;;;;;;;11.50;11.50;;;;;25.47;37.42;101324.22;5081802;27;45534;-75
2022/06/16 00:04:09;;;;;;;;;11.50;9.75;;;;;25.51;38.11;101319.41;5082547;27;45316;-74
2022/06/16 00:06:34;;;;;;;;;11.00;9.75;;;;;25.55;38.33;101322.72;5081584;28;48146;-75
2022/06/16 00:09:00;;;;;;;;;9.75;9.00;;;;;25.49;38.37;101322.25;5076399;27;45311;-74
2022/06/16 00:11:25;;;;;;;;;8.25;8.25;;;;;25.48;38.03;101330.59;5080377;27;45486;-75
2022/06/16 00:13:51;;;;;;;;;9.00;9.00;;;;;25.39;37.87;101324.03;5082270;28;45442;-75
2022/06/16 00:16:18;;;;;;;;;10.25;8.75;;;;;25.32;37.98;101322.81;5081733;27;45368;-75
2022/06/16 00:18:44;;;;;;;;;9.50;9.50;;;;;25.34;38.75;101339.94;5082166;28;45493;-74
2022/06/16 00:21:10;;;;;;;;;8.00;7.75;;;;;25.28;38.16;101341.34;5081593;27;45433;-75
2022/06/16 00:23:36;;;;;;;;;9.50;8.75;;;;;25.26;39.14;101336.97;5082112;27;45501;-75
2022/06/16 00:26:01;;;;;;;;;10.00;8.00;;;;;25.22;38.50;101343.72;5080984;28;45491;-75
2022/06/16 00:28:26;;;;;;;;;8.75;8.75;;;;;25.15;38.64;101329.72;5063329;28;46247;-75
2022/06/16 00:31:04;;;;;;;;;10.75;9.25;;;;;25.20;39.10;101343.84;5081797;27;45384;-75
2022/06/16 00:33:29;;;;;;;;;9.75;9.75;;;;;25.12;38.75;101336.28;5081832;28;45338;-74
2022/06/16 00:35:54;;;;;;;;;9.75;9.75;;;;;25.11;39.38;101344.63;5081388;27;45644;-74
2022/06/16 00:38:20;;;;;;;;;11.00;11.00;;;;;25.07;38.96;101344.00;5081491;28;48039;-75
2022/06/16 00:40:45;;;;;;;;;10.25;10.25;;;;;25.01;38.85;101338.19;5081184;27;57635;-75
2022/06/16 00:43:11;;;;;;;;;10.75;10.75;;;;;24.99;39.00;101354.69;5064890;28;46675;-74
2022/06/16 00:45:59;;;;;;;;;7.00;7.00;;;;;24.94;39.11;101356.94;5081554;27;45189;-75
2022/06/16 00:48:35;;;;;;;;;11.00;11.00;;;;;24.91;40.02;101366.28;5081262;28;47292;-74
2022/06/16 00:51:09;;;;;;;;;12.50;11.00;;;;;24.88;40.03;101362.94;5081174;28;45418;-74
2022/06/16 00:53:36;;;;;;;;;10.00;10.00;;;;;24.86;39.70;101364.91;5081190;27;45446;-74
2022/06/16 00:56:03;;;;;;;;;10.00;9.00;;;;;24.87;39.78;101374.84;5080803;28;46285;-75
2022/06/16 00:58:30;;;;;;;;;9.00;7.00;;;;;24.81;39.77;101359.84;5080290;28;46034;-75
2022/06/16 01:00:55;;;;;;;;;10.25;9.75;;;;;24.82;40.28;101379.84;5081507;28;45339;-75
2022/06/16 01:06:24;;;;;;;;;7.50;7.50;;;;;24.66;39.93;101381.09;5081428;27;45545;-74
2022/06/16 01:08:54;;;;;;;;;10.00;9.75;;;;;24.66;40.42;101375.63;5076900;27;45257;-75
2022/06/16 01:14:34;;;;;;;;;17.25;17.25;;;;;24.69;40.73;101389.03;5081188;28;45379;-74
2022/06/16 01:17:07;;;;;;;;;9.50;9.50;;;;;24.64;40.40;101391.28;5081066;28;45338;-75
2022/06/16 01:19:57;;;;;;;;;10.75;9.75;;;;;24.59;40.39;101391.66;5080975;27;45438;-74
2022/06/16 01:22:59;;;;;;;;;5.00;5.00;;;;;24.52;41.16;101392.22;5062981;28;45464;-74
2022/06/16 01:25:49;;;;;;;;;13.75;12.75;;;;;24.45;40.57;101393.72;5081274;28;45394;-74
2022/06/16 01:28:49;;;;;;;;;9.00;9.00;;;;;24.43;40.89;101399.31;5079049;28;45583;-74
2022/06/16 01:31:30;;;;;;;;;14.00;14.00;;;;;24.42;41.24;101409.38;5020829;28;46197;-74
2022/06/16 01:34:17;;;;;;;;;10.50;10.25;;;;;24.36;41.57;101407.13;5075559;28;45610;-74
2022/06/16 01:36:52;;;;;;;;;10.00;8.75;;;;;24.33;41.85;101407.38;5080978;28;45346;-75
2022/06/16 01:39:34;;;;;;;;;15.50;13.75;;;;;24.26;41.63;101402.50;5080390;28;45377;-74
2022/06/16 01:42:12;;;;;;;;;10.00;10.00;;;;;24.20;41.63;101406.59;5080253;28;45419;-74
2022/06/16 01:44:45;;;;;;;;;12.00;11.50;;;;;24.22;41.78;101415.53;5080859;28;45411;-74
2022/06/16 01:47:17;;;;;;;;;12.00;12.00;;;;;24.22;42.06;101423.72;5080470;27;45370;-75
2022/06/16 01:49:52;;;;;;;;;11.50;10.50;;;;;24.20;42.06;101418.38;5080712;27;45461;-75
2022/06/16 01:52:25;;;;;;;;;12.75;12.00;;;;;24.18;41.85;101424.97;5080086;27;45415;-74
2022/06/16 01:54:57;;;;;;;;;12.25;11.25;;;;;24.11;42.07;101423.72;5079530;28;45256;-74
2022/06/16 01:57:29;;;;;;;;;13.75;12.25;;;;;24.00;41.89;101419.94;5079346;28;45541;-74
2022/06/16 02:00:00;;;;;;;;;9.25;9.25;;;;;24.04;42.49;101437.81;5080423;27;45351;-74
2022/06/16 02:02:30;;;;;;;;;16.50;14.00;;;;;24.00;42.48;101428.13;5080333;28;46353;-74
2022/06/16 02:04:58;;;;;;;;;12.00;12.00;;;;;23.98;42.62;101435.56;5080323;28;46340;-74
2022/06/16 02:07:51;;;;;;;;;12.00;10.75;;;;;23.97;42.50;101436.59;5080294;27;45385;-74
2022/06/16 02:10:24;;;;;;;;;11.25;9.25;;;;;23.96;43.05;101431.25;5058636;27;45306;-74
2022/06/16 02:12:56;;;;;;;;;13.50;13.25;;;;;23.92;42.93;101440.63;5080111;27;46729;-74
2022/06/16 02:15:24;;;;;;;;;9.50;9.50;;;;;23.92;43.00;101452.41;5079849;28;45536;-74
2022/06/16 02:17:50;;;;;;;;;12.25;12.25;;;;;23.88;42.66;101440.00;5080229;28;45486;-74
2022/06/16 02:20:16;;;;;;;;;15.00;13.00;;;;;23.88;43.19;101436.44;5080494;28;45313;-74
2022/06/16 02:22:41;;;;;;;;;13.00;13.00;;;;;23.83;42.99;101436.78;5079633;28;46093;-74
2022/06/16 02:25:07;;;;;;;;;12.25;10.00;;;;;23.87;43.16;101443.72;5077493;28;45397;-74
2022/06/16 02:27:32;;;;;;;;;15.00;13.25;;;;;23.85;43.07;101451.16;5079987;28;45157;-75
2022/06/16 02:29:58;;;;;;;;;14.75;13.25;;;;;23.77;43.12;101439.94;5080354;28;45203;-74
2022/06/16 02:32:44;;;;;;;;;14.00;13.00;;;;;23.76;43.50;101444.53;5079629;27;52851;-74
2022/06/16 02:35:40;;;;;;;;;10.50;10.50;;;;;23.74;43.28;101446.50;5080006;28;45347;-74
2022/06/16 02:38:40;;;;;;;;;14.25;11.00;;;;;23.75;43.48;101440.06;5071752;28;45423;-74
2022/06/16 02:41:10;;;;;;;;;12.50;12.50;;;;;23.74;43.58;101449.22;5049982;27;46550;-74
2022/06/16 02:44:11;;;;;;;;;12.25;10.00;;;;;23.68;43.57;101442.38;5079632;28;46977;-74
2022/06/16 02:46:50;;;;;;;;;12.50;12.50;;;;;23.72;43.50;101448.47;5079975;28;45238;-74
2022/06/16 02:49:22;;;;;;;;;10.00;9.25;;;;;23.72;43.70;101453.03;5061366;28;45331;-74
2022/06/16 02:52:06;;;;;;;;;10.50;10.50;;;;;23.70;43.94;101441.41;5079647;28;45270;-74
2022/06/16 02:55:00;;;;;;;;;13.00;12.75;;;;;23.66;43.71;101443.50;5076600;28;45498;-74
2022/06/16 02:57:44;;;;;;;;;15.25;12.25;;;;;23.66;43.73;101443.50;5069252;28;45466;-74
2022/06/16 03:00:20;;;;;;;;;11.50;9.50;;;;;23.62;43.84;101445.59;5078202;28;45253;-74
2022/06/16 03:02:45;;;;;;;;;10.50;9.50;;;;;23.58;44.04;101445.94;5079568;28;45343;-74
2022/06/16 03:05:14;;;;;;;;;12.75;12.00;;;;;23.63;43.88;101447.31;5080505;27;46194;-74
2022/06/16 03:07:41;;;;;;;;;12.75;12.75;;;;;23.61;43.85;101456.63;5083303;28;45621;-74
2022/06/16 03:10:07;;;;;;;;;15.00;11.75;;;;;23.58;43.80;101454.13;5076335;28;45289;-74
2022/06/16 03:12:33;;;;;;;;;14.00;13.50;;;;;23.56;43.97;101462.41;5082964;28;45611;-74
2022/06/16 03:14:58;;;;;;;;;16.00;12.00;;;;;23.59;43.86;101464.00;5064757;28;48144;-74
2022/06/16 03:17:24;;;;;;;;;11.00;11.00;;;;;23.55;43.91;101460.66;5082918;28;45310;-74
2022/06/16 03:19:49;;;;;;;;;15.00;14.00;;;;;23.57;44.20;101463.25;5083591;28;45317;-74
2022/06/16 03:22:15;;;;;;;;;12.75;11.75;;;;;23.56;44.13;101467.00;5082159;28;45544;-74
2022/06/16 03:24:40;;;;;;;;;12.25;11.25;;;;;23.53;43.95;101465.34;5082713;28;46485;-74
2022/06/16 03:27:07;;;;;;;;;12.50;11.00;;;;;23.53;44.42;101473.53;5082837;28;45274;-74
2022/06/16 03:29:33;;;;;;;;;12.50;11.50;;;;;23.52;44.23;101477.22;5082947;28;45428;-74
2022/06/16 03:31:58;;;;;;;;;13.00;12.00;;;;;23.51;44.34;101477.38;5081344;27;45265;-74
2022/06/16 03:34:25;;;;;;;;;13.00;13.00;;;;;23.48;44.23;101478.47;5082420;28;46247;-74
2022/06/16 03:36:51;;;;;;;;;14.75;13.00;;;;;23.47;44.63;101483.06;5082667;28;45569;-74
2022/06/16 03:39:17;;;;;;;;;14.75;12.50;;;;;23.45;44.42;101487.72;5082925;28;45376;-74
2022/06/16 03:41:43;;;;;;;;;13.75;12.50;;;;;23.36;44.39;101474.81;5082511;28;45324;-74
2022/06/16 03:44:09;;;;;;;;;14.75;14.25;;;;;23.40;45.00;101487.19;5082680;28;45323;-74
2022/06/16 03:46:34;;;;;;;;;14.50;13.75;;;;;23.37;44.70;101479.28;5082954;28;45286;-74
2022/06/16 03:49:01;;;;;;;;;13.25;13.25;;;;;23.33;44.71;101480.47;5082649;28;45325;-74
2022/06/16 03:51:26;;;;;;;;;15.00;14.00;;;;;23.28;44.64;101472.66;5082937;28;45258;-74
2022/06/16 03:53:51;;;;;;;;;13.00;11.75;;;;;23.29;44.85;101479.84;5081624;28;47821;-74
2022/06/16 03:56:17;;;;;;;;;11.00;11.00;;;;;23.28;45.00;101482.69;5082487;28;45362;-74
2022/06/16 03:58:43;;;;;;;;;15.00;14.00;;;;;23.23;45.07;101480.28;5082486;28;45269;-74
2022/06/16 04:01:08;;;;;;;;;12.25;11.00;;;;;23.23;44.81;101491.19;5081228;28;45478;-74
2022/06/16 04:06:18;;;;;;;;;13.75;11.25;;;;;23.19;45.14;101500.59;5082343;28;45253;-74
2022/06/16 04:08:44;;;;;;;;;12.00;11.00;;;;;23.20;45.09;101499.56;5082121;28;45252;-74
2022/06/16 04:11:28;;;;;;;;;14.00;11.75;;;;;23.18;45.02;101498.81;5082143;28;45464;-74
2022/06/16 04:14:00;;;;;;;;;13.00;12.75;;;;;23.12;45.21;101492.00;5082074;28;46217;-74
2022/06/16 04:16:26;;;;;;;;;11.75;11.50;;;;;23.07;45.10;101485.13;5081319;28;45246;-74
2022/06/16 04:18:52;;;;;;;;;12.75;12.75;;;;;23.07;45.19;101487.84;5081773;28;45244;-74
2022/06/16 04:21:17;;;;;;;;;15.25;14.00;;;;;23.08;45.84;101490.47;5081885;28;45268;-74
2022/06/16 04:23:43;;;;;;;;;15.75;15.75;;;;;23.06;45.25;101494.25;5080223;28;46123;-74
2022/06/16 04:26:08;;;;;;;;;12.50;12.50;;;;;22.99;45.35;101503.84;5081834;28;45163;-74
2022/06/16 04:28:33;;;;;;;;;15.00;15.00;;;;;22.97;45.62;101505.81;5081920;28;45413;-74
2022/06/16 04:30:59;;;;;;;;;14.25;12.75;;;;;22.91;45.61;101505.28;5079630;28;45290;-74
2022/06/16 04:33:25;;;;;;;;;12.25;12.00;;;;;22.92;45.54;101517.91;5081925;27;45568;-74
2022/06/16 04:35:51;;;;;;;;;15.00;15.00;;;;;22.94;45.87;101515.09;5081603;28;45319;-74
2022/06/16 04:38:17;;;;;;;;;14.75;13.50;;;;;22.94;46.03;101520.53;5081811;28;45377;-74
2022/06/16 04:40:42;;;;;;;;;16.50;13.25;;;;;22.92;45.59;101517.03;5081738;28;45426;-74
2022/06/16 04:43:08;;;;;;;;;13.25;13.25;;;;;22.92;45.62;101517.91;5081629;27;45587;-74
2022/06/16 04:45:33;;;;;;;;;15.00;13.50;;;;;22.90;46.24;101519.88;5081733;28;45497;-74
2022/06/16 04:47:58;;;;;;;;;14.25;12.75;;;;;22.86;46.18;101512.91;5081610;28;45544;-74
2022/06/16 04:50:24;;;;;;;;;12.00;12.00;;;;;22.86;46.42;101512.91;5081591;28;45341;-74
2022/06/16 04:52:49;;;;;;;;;12.25;11.25;;;;;22.82;46.02;101507.78;5081325;28;45361;-74
2022/06/16 04:55:16;;;;;;;;;13.50;13.50;;;;;22.85;45.91;101535.66;5081585;28;45398;-74
2022/06/16 04:57:42;;;;;;;;;17.50;15.00;;;;;22.85;46.48;101537.50;5081668;28;45351;-74
2022/06/16 05:00:11;;;;;;;;;12.25;11.75;;;;;22.84;46.17;101536.66;5080908;28;45300;-74
2022/06/16 05:02:37;;;;;;;;;15.50;14.50;;;;;22.84;45.60;101547.53;5081112;27;45426;-74
2022/06/16 05:05:02;;;;;;;;;13.25;13.00;;;;;22.75;46.48;101543.63;5081293;28;45383;-74
2022/06/16 05:07:28;;;;;;;;;12.50;12.50;;;;;22.76;46.48;101550.81;5081664;28;45356;-74
2022/06/16 05:09:53;;;;;;;;;15.75;15.50;;;;;22.77;46.32;101562.56;5081205;28;45422;-74
2022/06/16 05:12:20;;;;;;;;;15.50;14.00;;;;;22.79;46.64;101548.84;5080885;28;53988;-74
2022/06/16 05:14:45;;;;;;;;;12.25;12.25;;;;;22.78;46.33;101558.84;5081483;28;45528;-74
2022/06/16 05:17:10;;;;;;;;;13.00;13.00;;;;;22.75;46.56;101554.53;5081133;28;46564;-74
2022/06/16 05:19:36;;;;;;;;;18.75;16.25;;;;;22.75;46.33;101570.84;5081233;28;45888;-74
2022/06/16 05:22:05;;;;;;;;;15.50;14.75;;;;;22.67;46.04;101567.78;5080771;27;46098;-74
2022/06/16 05:24:31;;;;;;;;;11.75;11.75;;;;;22.74;46.37;101577.25;5081061;28;45382;-74
2022/06/16 05:26:56;;;;;;;;;15.00;14.25;;;;;22.73;46.58;101585.53;5081094;28;45453;-74
2022/06/16 05:29:22;;;;;;;;;12.25;12.25;;;;;22.75;45.97;101589.91;5080837;28;45298;-74
2022/06/16 05:31:47;;;;;;;;;16.00;13.75;;;;;22.79;45.98;101598.72;5078402;27;45463;-74
2022/06/16 05:34:13;;;;;;;;;14.25;14.25;;;;;22.78;46.52;101616.00;5079350;28;45449;-74
2022/06/16 05:36:38;;;;;;;;;13.75;12.25;;;;;22.78;46.56;101610.56;5080576;28;45489;-74
2022/06/16 05:39:03;;;;;;;;;15.25;12.25;;;;;22.77;46.37;101617.00;5080573;28;45532;-74
2022/06/16 05:41:29;;;;;;;;;19.75;17.00;;;;;22.78;46.29;101621.47;5080423;28;45449;-74
2022/06/16 05:43:55;;;;;;;;;13.25;13.25;;;;;22.80;46.25;101624.06;5080582;28;45538;-74
2022/06/16 05:46:22;;;;;;;;;16.25;15.00;;;;;22.77;46.59;101625.19;5082153;27;45482;-73
2022/06/16 05:48:50;;;;;;;;;15.75;13.75;;;;;22.79;46.52;101627.75;5077859;28;45667;-73
2022/06/16 05:51:16;;;;;;;;;16.00;13.75;;;;;22.75;46.40;101625.28;5075296;28;45468;-74
2022/06/16 05:53:42;;;;;;;;;10.00;8.00;;;;;22.76;46.09;101628.88;5074229;27;45545;-74
2022/06/16 05:56:08;;;;;;;;;15.75;13.75;;;;;22.75;46.16;101628.00;5075145;28;45389;-74
2022/06/16 05:58:34;;;;;;;;;16.75;16.75;;;;;22.74;45.87;101631.69;5084600;27;45452;-74
2022/06/16 06:01:00;;;;;;;;;12.25;12.25;;;;;22.78;46.26;101635.06;5096670;27;47453;-74
2022/06/16 06:03:25;;;;;;;;;16.25;15.00;;;;;22.80;45.89;101635.81;5058971;28;45432;-74
2022/06/16 06:05:51;;;;;;;;;22.75;20.25;;;;;22.81;46.11;101623.97;5062285;28;45238;-74
2022/06/16 06:16:39;;;;;;;;;18.75;17.75;;;;;22.86;46.15;101645.44;5078482;28;45435;-74
2022/06/16 06:21:58;;;;;;;;;13.75;13.75;;;;;22.85;46.03;101649.97;5074431;28;45517;-73
2022/06/16 06:24:24;;;;;;;;;16.00;16.00;;;;;22.86;46.25;101654.47;5080156;28;45586;-73
2022/06/16 06:26:49;;;;;;;;;15.75;15.75;;;;;22.85;45.86;101649.97;5080186;28;45356;-73
2022/06/16 06:29:14;;;;;;;;;15.50;15.50;;;;;22.87;45.84;101660.75;5080245;28;45197;-73
2022/06/16 06:31:40;;;;;;;;;13.50;13.50;;;;;22.88;45.51;101659.78;5061514;28;51331;-73
2022/06/16 06:34:05;;;;;;;;;16.25;14.00;;;;;22.91;46.31;101668.63;5075940;28;45478;-73
2022/06/16 06:36:30;;;;;;;;;14.75;14.75;;;;;22.93;45.88;101677.53;5079307;28;50355;-73
2022/06/16 06:38:56;;;;;;;;;18.75;17.50;;;;;22.90;46.18;101666.00;5079537;28;45617;-75
2022/06/16 06:41:22;;;;;;;;;19.50;18.00;;;;;22.96;46.15;101683.78;5061426;27;48090;-73
2022/06/16 06:43:47;;;;;;;;;18.50;17.75;;;;;22.96;45.64;101678.31;5082309;27;45580;-75
2022/06/16 06:46:13;;;;;;;;;16.75;16.75;;;;;22.93;45.67;101684.84;5079650;28;45386;-74
2022/06/16 06:48:39;;;;;;;;;18.00;18.00;;;;;22.91;45.96;101684.94;5078589;28;45492;-72
2022/06/16 06:51:04;;;;;;;;;16.75;16.50;;;;;22.92;45.58;101683.97;5066082;28;46493;-74
2022/06/16 06:53:29;;;;;;;;;19.00;18.50;;;;;22.98;45.68;101685.41;5078014;28;46034;-74
2022/06/16 06:55:55;;;;;;;;;17.75;16.75;;;;;22.98;45.44;101674.50;5072787;27;45680;-73
2022/06/16 06:58:22;;;;;;;;;20.00;19.25;;;;;23.02;45.39;101683.31;5077485;27;58887;-73
2022/06/16 07:00:53;;;;;;;;;26.25;22.50;;;;;22.97;45.67;101677.34;5073828;27;45396;-74
2022/06/16 07:03:20;;;;;;;;;16.50;16.50;;;;;23.03;45.41;101688.66;5100081;27;45503;-73
2022/06/16 07:05:46;;;;;;;;;18.00;18.00;;;;;22.99;45.04;101684.44;5076716;27;45927;-74
2022/06/16 07:08:11;;;;;;;;;18.75;17.50;;;;;23.07;45.35;101694.78;5078130;28;45677;-73
2022/06/16 07:10:36;;;;;;;;;20.50;19.25;;;;;23.10;45.14;101697.31;5078543;28;45395;-74
2022/06/16 07:13:02;;;;;;;;;17.50;16.00;;;;;23.10;45.18;101692.75;5059952;28;45465;-73
2022/06/16 07:15:27;;;;;;;;;18.00;16.00;;;;;23.19;45.17;101706.66;5059995;28;45486;-73
2022/06/16 07:17:53;;;;;;;;;18.25;18.25;;;;;23.16;44.68;101702.34;5078428;28;45355;-74
2022/06/16 07:20:19;;;;;;;;;19.50;18.00;;;;;23.24;44.85;101719.00;5078630;27;46316;-73
2022/06/16 07:22:45;;;;;;;;;16.75;16.25;;;;;23.24;44.46;101715.41;5059439;28;45863;-74
2022/06/16 07:25:11;;;;;;;;;17.25;16.25;;;;;23.28;43.94;101720.50;5083038;28;45546;-74
2022/06/16 07:27:36;;;;;;;;;16.50;16.00;;;;;23.30;44.07;101718.59;5077566;28;45316;-73
2022/06/16 07:30:07;;;;;;;;;16.50;14.50;;;;;23.39;44.08;101725.22;5078184;27;46138;-73
2022/06/16 07:32:33;;;;;;;;;19.75;16.00;;;;;23.45;43.65;101722.03;5075355;27;45481;-73
2022/06/16 07:34:58;;;;;;;;;19.25;17.00;;;;;23.43;43.89;101715.84;5079144;28;45307;-74
2022/06/16 07:37:23;;;;;;;;;15.25;15.25;;;;;23.52;43.62;101729.78;5079152;28;45438;-71
2022/06/16 07:39:48;;;;;;;;;15.50;14.25;;;;;23.56;42.93;101734.03;5079218;28;46013;-71
2022/06/16 07:42:14;;;;;;;;;17.25;15.50;;;;;23.62;43.18;101742.66;5078565;28;45380;-71
2022/06/16 07:44:39;;;;;;;;;20.75;17.75;;;;;23.63;42.66;101730.75;5061221;28;45956;-71
2022/06/16 07:47:05;;;;;;;;;18.00;15.50;;;;;23.66;42.05;101740.56;5078261;28;45224;-72
2022/06/16 07:49:32;;;;;;;;;14.00;13.50;;;;;23.71;42.48;101741.13;5078842;28;46153;-72
2022/06/16 07:51:58;;;;;;;;;20.75;17.25;;;;;23.74;42.05;101732.72;5078267;28;45422;-72
2022/06/16 07:54:24;;;;;;;;;15.00;15.00;;;;;23.81;42.13;101744.06;5082034;28;45503;-71
2022/06/16 07:56:51;;;;;;;;;14.75;12.75;;;;;23.84;42.27;101731.09;5081526;28;45300;-71
2022/06/16 07:59:17;;;;;;;;;18.00;15.00;;;;;23.92;41.89;101725.06;5082382;28;46273;-72
2022/06/16 08:01:42;;;;;;;;;14.00;14.00;;;;;23.95;41.66;101718.53;5061470;28;45957;-72
2022/06/16 08:04:08;;;;;;;;;17.25;12.25;;;;;24.00;42.42;101722.63;5062593;28;45457;-72
2022/06/16 08:06:35;;;;;;;;;13.25;12.25;;;;;24.11;41.67;101726.47;5081024;28;45786;-71
2022/06/16 08:09:03;;;;;;;;;13.75;13.75;;;;;24.16;41.46;101729.72;5076515;28;46562;-71
2022/06/16 08:14:12;;;;;;;;;10.75;10.25;;;;;24.31;40.90;101728.56;5081774;28;45235;-72
2022/06/16 08:16:38;;;;;;;;;13.25;12.75;;;;;24.35;41.16;101721.88;5082195;28;45253;-71
2022/06/16 08:19:04;;;;;;;;;14.00;13.75;;;;;24.44;40.59;101736.69;5081809;28;45243;-71
2022/06/16 08:21:30;;;;;;;;;13.75;12.50;;;;;24.46;40.28;101731.09;5082130;28;45437;-72
2022/06/16 08:23:56;;;;;;;;;14.50;11.50;;;;;24.55;40.43;101725.84;5082274;28;45227;-72
2022/06/16 08:26:22;;;;;;;;;14.00;13.00;;;;;24.57;39.48;101725.72;5081616;28;45302;-71
2022/06/16 08:28:51;;;;;;;;;10.50;10.50;;;;;24.66;39.04;101735.97;5062745;28;47307;-71
2022/06/16 08:31:20;;;;;;;;;9.50;8.75;;;;;24.73;38.64;101737.22;5061571;28;45729;-71
2022/06/16 08:33:46;;;;;;;;;10.00;9.50;;;;;24.77;38.11;101736.03;5081730;28;45346;-71
2022/06/16 08:36:11;;;;;;;;;13.75;12.25;;;;;24.79;37.82;101722.22;5080094;28;45538;-71
2022/06/16 08:38:37;;;;;;;;;12.00;12.00;;;;;24.83;37.79;101728.34;5078124;28;51685;-71
2022/06/16 08:41:15;;;;;;;;;11.00;10.75;;;;;24.87;37.51;101718.91;5080176;28;45480;-71
2022/06/16 08:44:00;;;;;;;;;11.50;10.50;;;;;24.94;36.57;101728.34;5081359;28;45403;-71
2022/06/16 08:46:35;;;;;;;;;5.50;5.50;;;;;24.97;36.91;101728.13;5080978;28;45149;-71
2022/06/16 08:49:15;;;;;;;;;9.50;9.50;;;;;25.03;36.48;101726.78;5080886;28;45389;-71
2022/06/16 08:52:12;;;;;;;;;10.00;9.25;;;;;25.05;35.81;101736.59;5081663;28;45861;-71
2022/06/16 08:54:56;;;;;;;;;9.50;9.50;;;;;25.08;35.67;101739.09;5081897;28;45241;-71
2022/06/16 08:57:48;;;;;;;;;12.75;11.00;;;;;25.11;35.27;101744.31;5075922;28;45445;-71
2022/06/16 09:00:28;;;;;;;;;10.75;9.00;;;;;25.17;36.13;101742.09;5081155;27;45457;-71
2022/06/16 09:03:09;;;;;;;;;10.00;10.00;;;;;25.16;35.96;101733.03;5080624;28;45502;-71
2022/06/16 09:06:07;;;;;;;;;12.75;12.75;;;;;25.25;35.85;101737.75;5081415;28;45157;-71
2022/06/16 09:08:55;;;;;;;;;8.00;7.25;;;;;25.26;35.71;101727.69;5050661;28;45829;-71
2022/06/16 09:11:44;;;;;;;;;9.50;9.00;;;;;25.29;34.82;101725.63;5081207;28;45233;-71
2022/06/16 09:14:12;;;;;;;;;10.00;10.00;;;;;25.36;35.42;101734.22;5080788;28;45207;-71
2022/06/16 09:16:54;;;;;;;;;9.50;9.50;;;;;25.34;34.54;101736.19;5081377;28;45423;-72
2022/06/16 09:19:38;;;;;;;;;9.00;9.00;;;;;25.37;35.43;101725.00;5081087;28;45364;-72
2022/06/16 09:22:22;;;;;;;;;9.00;8.00;;;;;25.39;35.22;101727.63;5081215;27;46243;-71
2022/06/16 09:25:08;;;;;;;;;8.25;8.25;;;;;25.45;35.31;101728.00;5051062;28;46084;-71
2022/06/16 09:27:51;;;;;;;;;12.50;8.75;;;;;25.47;35.02;101725.16;5062644;28;45449;-71
2022/06/16 09:30:24;;;;;;;;;9.00;9.00;;;;;25.49;34.73;101734.97;5080939;28;45481;-71
2022/06/16 09:32:57;;;;;;;;;9.00;9.00;;;;;25.55;34.87;101743.69;5062570;28;46706;-71
2022/06/16 09:35:37;;;;;;;;;7.25;7.00;;;;;25.55;34.73;101736.34;5080316;28;45430;-71
2022/06/16 09:38:32;;;;;;;;;8.50;8.25;;;;;25.56;34.72;101743.56;5080975;28;45165;-72
2022/06/16 09:44:09;;;;;;;;;7.50;7.25;;;;;25.55;33.85;101735.47;5079770;28;45355;-71
2022/06/16 09:46:42;;;;;;;;;8.00;8.00;;;;;25.51;34.14;101727.53;5080818;28;45413;-71
2022/06/16 09:49:15;;;;;;;;;10.25;8.75;;;;;25.56;33.80;101707.13;5072259;28;45269;-71
2022/06/16 09:51:57;;;;;;;;;8.75;8.75;;;;;25.59;34.15;101710.47;5080366;28;45327;-71
2022/06/16 09:54:29;;;;;;;;;11.00;9.50;;;;;25.58;34.98;101697.81;5080208;28;46251;-71
2022/06/16 09:57:05;;;;;;;;;8.00;7.75;;;;;25.70;34.52;101699.56;5079961;28;45386;-72
2022/06/16 09:59:34;;;;;;;;;6.50;6.25;;;;;25.79;34.71;101708.00;5080694;28;45262;-71
2022/06/16 10:02:29;;;;;;;;;7.25;6.75;;;;;25.86;33.94;101720.16;5078751;28;45174;-71
2022/06/16 10:04:55;;;;;;;;;9.00;7.25;;;;;25.86;33.21;101707.38;5059217;28;46392;-71
2022/06/16 10:07:34;;;;;;;;;11.00;10.00;;;;;25.93;33.75;101717.78;5080549;28;45344;-71
2022/06/16 10:10:13;;;;;;;;;7.00;6.75;;;;;25.98;33.21;101710.13;5073074;28;45501;-72
2022/06/16 10:12:46;;;;;;;;;8.25;8.00;;;;;26.03;32.94;101718.84;5079413;28;45247;-72
2022/06/16 10:15:20;;;;;;;;;6.50;6.50;;;;;26.05;32.87;101722.31;5078668;28;46190;-72
2022/06/16 10:17:47;;;;;;;;;8.75;7.00;;;;;26.06;33.29;101722.19;5079158;28;45813;-72
2022/06/16 10:20:16;;;;;;;;;8.50;8.00;;;;;26.08;32.41;101716.59;5079519;28;45426;-74
2022/06/16 10:22:47;;;;;;;;;6.50;6.50;;;;;26.04;32.20;101718.72;5079967;28;45591;-71
2022/06/16 10:25:22;;;;;;;;;9.25;9.25;;;;;26.09;32.73;101721.03;5061875;28;47143;-71
2022/06/16 10:27:52;;;;;;;;;10.75;10.50;;;;;26.13;31.90;101713.44;5075837;28;45194;-71
2022/06/16 10:30:34;;;;;;;;;10.50;10.50;;;;;26.17;32.37;101714.94;5071560;28;45375;-69
2022/06/16 10:33:24;;;;;;;;;8.75;8.75;;;;;26.20;31.46;101717.44;5067242;28;45225;-70
2022/06/16 10:35:56;;;;;;;;;7.00;7.00;;;;;26.20;31.85;101717.44;5079545;28;45336;-70
2022/06/16 10:38:31;;;;;;;;;7.00;7.00;;;;;26.18;31.61;101708.50;5079206;28;45476;-71
2022/06/16 10:40:58;;;;;;;;;6.00;6.00;;;;;26.21;31.69;101714.56;5080045;28;45418;-71
2022/06/16 10:43:25;;;;;;;;;9.50;9.00;;;;;26.22;31.81;101705.34;5079609;28;45367;-71
2022/06/16 10:46:11;;;;;;;;;11.00;10.75;;;;;26.20;32.67;101685.44;5079951;28;45279;-72
2022/06/16 10:48:40;;;;;;;;;9.00;7.75;;;;;26.25;31.83;101687.81;5078928;28;45690;-71
2022/06/16 10:51:12;;;;;;;;;8.50;8.50;;;;;26.29;32.29;101691.16;5079813;28;45347;-71
2022/06/16 10:54:00;;;;;;;;;10.50;9.00;;;;;26.29;32.26;101697.47;5061383;28;45808;-71
2022/06/16 10:56:27;;;;;;;;;9.00;9.00;;;;;26.32;31.62;101699.09;5078513;28;45371;-71
2022/06/16 10:59:05;;;;;;;;;10.00;8.00;;;;;26.39;31.42;101697.59;5069350;28;45486;-72
2022/06/16 11:01:30;;;;;;;;;8.25;7.50;;;;;26.44;31.24;101701.66;5078045;28;45386;-73
2022/06/16 11:04:06;;;;;;;;;7.00;7.00;;;;;26.47;30.75;101703.28;5076848;28;45548;-73
2022/06/16 11:06:32;;;;;;;;;8.25;7.50;;;;;26.47;30.98;101695.06;5076647;28;45283;-73
2022/06/16 11:09:02;;;;;;;;;7.25;7.25;;;;;26.56;30.75;101698.88;5078140;28;45398;-73
2022/06/16 11:11:33;;;;;;;;;9.00;8.00;;;;;26.59;31.34;101690.41;5068829;28;45521;-73
2022/06/16 11:14:03;;;;;;;;;9.50;9.50;;;;;26.58;31.47;101683.19;5074911;27;45690;-73
2022/06/16 11:16:32;;;;;;;;;12.00;8.75;;;;;26.68;31.36;101688.78;5075250;27;45522;-73
2022/06/16 11:19:00;;;;;;;;;9.50;8.00;;;;;26.71;31.19;101694.84;5055999;28;45663;-74
2022/06/16 11:21:31;;;;;;;;;8.25;8.00;;;;;26.78;30.83;101706.16;5074649;28;45718;-72
2022/06/16 11:24:02;;;;;;;;;8.50;8.50;;;;;26.77;30.83;101699.81;5075566;28;45463;-76
2022/06/16 11:26:33;;;;;;;;;7.50;7.00;;;;;26.74;30.08;101686.38;5075943;27;46130;-77
2022/06/16 11:29:01;;;;;;;;;8.75;7.75;;;;;26.87;30.14;101713.59;5060234;28;45716;-74
2022/06/16 11:31:40;;;;;;;;;8.00;8.00;;;;;26.86;30.42;101705.50;5077724;27;45470;-74
2022/06/16 11:34:19;;;;;;;;;7.00;7.00;;;;;26.93;29.51;101715.81;5072132;27;45609;-74
2022/06/16 11:37:05;;;;;;;;;8.00;8.00;;;;;26.96;29.90;101707.31;5078388;27;45688;-74
2022/06/16 11:40:08;;;;;;;;;7.25;7.25;;;;;26.98;30.56;101694.34;5077881;27;45648;-75
2022/06/16 11:43:11;;;;;;;;;8.00;8.00;;;;;27.03;30.19;101696.69;5076848;27;45544;-75
2022/06/16 11:45:38;;;;;;;;;9.00;8.75;;;;;27.03;30.27;101691.22;5077003;27;45833;-74
2022/06/16 11:48:04;;;;;;;;;8.00;6.50;;;;;27.02;30.08;101694.09;5059491;28;47104;-73
2022/06/16 11:50:44;;;;;;;;;8.00;7.00;;;;;27.01;29.42;101695.94;5059441;28;45363;-73
2022/06/16 11:53:40;;;;;;;;;7.00;7.00;;;;;27.07;29.63;101705.50;5078170;27;45491;-75
2022/06/16 11:56:10;;;;;;;;;9.25;9.00;;;;;27.07;29.46;101706.38;5078171;28;45734;-74
2022/06/16 11:59:00;;;;;;;;;9.50;8.00;;;;;27.09;29.41;101701.63;5077229;28;46558;-74